createdAt,value
2023-05-10T00:00:44.834Z,89.09
2023-05-10T00:03:13.026Z,89.21
2023-05-10T00:05:42.329Z,89.05
2023-05-10T00:08:10.339Z,89.25
2023-05-10T00:10:38.745Z,89.05
2023-05-10T00:13:09.918Z,89.06
2023-05-10T00:15:38.345Z,88.95
2023-05-10T00:18:06.502Z,89.25
2023-05-10T00:20:34.606Z,89.06
2023-05-10T00:23:03.830Z,88.97
2023-05-10T00:25:31.628Z,89.03
2023-05-10T00:27:59.682Z,88.61
2023-05-10T00:30:27.467Z,88.81
2023-05-10T00:32:55.613Z,88.95
2023-05-10T00:35:23.748Z,89.02
2023-05-10T00:37:51.473Z,88.85
2023-05-10T00:40:20.760Z,88.73
2023-05-10T00:42:48.777Z,89.19
2023-05-10T00:45:17.136Z,89.30
2023-05-10T00:47:45.210Z,89.26
2023-05-10T00:50:13.397Z,88.95
2023-05-10T00:52:41.393Z,88.97
2023-05-10T00:55:10.429Z,89.10
2023-05-10T00:57:39.861Z,89.38
2023-05-10T01:00:08.994Z,89.07
2023-05-10T01:02:36.989Z,89.05
2023-05-10T01:05:06.294Z,89.21
2023-05-10T01:07:34.441Z,89.44
2023-05-10T01:10:02.252Z,89.38
2023-05-10T01:12:30.079Z,89.50
2023-05-10T01:14:59.729Z,89.38
2023-05-10T01:17:28.254Z,89.44
2023-05-10T01:19:56.151Z,89.29
2023-05-10T01:22:47.403Z,89.43
2023-05-10T01:25:32.706Z,89.59
2023-05-10T01:28:25.211Z,89.39
2023-05-10T01:31:14.906Z,89.56
2023-05-10T01:33:49.707Z,89.88
2023-05-10T01:36:27.271Z,89.88
2023-05-10T01:38:59.647Z,89.56
2023-05-10T01:41:31.281Z,89.61
2023-05-10T01:44:08.664Z,89.55
2023-05-10T01:46:39.392Z,89.58
2023-05-10T01:49:10.950Z,89.65
2023-05-10T01:51:42.208Z,89.49
2023-05-10T01:54:11.862Z,89.80
2023-05-10T01:56:40.139Z,89.58
2023-05-10T01:59:12.820Z,89.86
2023-05-10T02:01:40.832Z,89.86
2023-05-10T02:04:11.110Z,89.75
2023-05-10T02:06:40.508Z,89.70
2023-05-10T02:09:09.169Z,89.87
2023-05-10T02:11:37.585Z,89.74
2023-05-10T02:14:05.749Z,89.52
2023-05-10T02:16:34.336Z,89.58
2023-05-10T02:19:03.973Z,89.72
2023-05-10T02:21:33.782Z,89.89
2023-05-10T02:24:03.238Z,89.73
2023-05-10T02:26:31.114Z,89.50
2023-05-10T02:28:59.801Z,89.59
2023-05-10T02:31:28.468Z,89.77
2023-05-10T02:33:56.690Z,89.75
2023-05-10T02:36:25.017Z,89.80
2023-05-10T02:38:54.810Z,89.89
2023-05-10T02:41:23.552Z,89.60
2023-05-10T02:43:52.660Z,90.02
2023-05-10T02:46:20.768Z,89.80
2023-05-10T02:48:48.588Z,90.04
2023-05-10T02:51:18.595Z,90.28
2023-05-10T02:53:48.279Z,90.11
2023-05-10T02:56:23.863Z,90.72
2023-05-10T02:58:51.632Z,90.57
2023-05-10T03:01:19.530Z,90.85
2023-05-10T03:03:47.351Z,91.02
2023-05-10T03:06:15.453Z,91.06
2023-05-10T03:08:43.217Z,90.84
2023-05-10T03:11:25.057Z,91.07
2023-05-10T03:14:01.778Z,90.86
2023-05-10T03:16:45.165Z,91.17
2023-05-10T03:19:18.954Z,91.34
2023-05-10T03:21:52.202Z,90.88
2023-05-10T03:24:21.281Z,91.38
2023-05-10T03:26:51.510Z,91.26
2023-05-10T03:29:19.496Z,91.21
2023-05-10T03:31:47.365Z,91.38
2023-05-10T03:34:15.348Z,91.36
2023-05-10T03:36:43.202Z,91.62
2023-05-10T03:39:11.511Z,91.77
2023-05-10T03:41:39.316Z,91.58
2023-05-10T03:44:08.421Z,91.70
2023-05-10T03:46:36.184Z,91.47
2023-05-10T03:49:03.985Z,91.84
2023-05-10T03:51:32.203Z,91.85
2023-05-10T03:53:59.973Z,91.74
2023-05-10T03:56:27.772Z,91.90
2023-05-10T03:58:55.578Z,92.11
2023-05-10T04:01:24.701Z,91.64
2023-05-10T04:03:52.748Z,91.80
2023-05-10T04:06:20.582Z,92.19
2023-05-10T04:08:48.390Z,92.37
2023-05-10T04:11:16.162Z,91.96
2023-05-10T04:13:44.771Z,91.95
2023-05-10T04:16:12.500Z,91.94
2023-05-10T04:18:41.761Z,92.17
2023-05-10T04:21:14.411Z,91.84
2023-05-10T04:23:42.446Z,92.22
2023-05-10T04:26:10.261Z,92.24
2023-05-10T04:28:38.125Z,92.14
2023-05-10T04:31:06.072Z,92.45
2023-05-10T04:33:34.344Z,92.35
2023-05-10T04:36:03.579Z,92.21
2023-05-10T04:38:31.547Z,92.36
2023-05-10T04:41:06.243Z,92.30
2023-05-10T04:43:34.095Z,92.27
2023-05-10T04:46:01.965Z,92.32
2023-05-10T04:48:29.856Z,92.32
2023-05-10T04:50:57.692Z,92.25
2023-05-10T04:53:26.946Z,92.10
2023-05-10T04:55:54.740Z,92.40
2023-05-10T04:58:22.523Z,92.35
2023-05-10T05:00:50.280Z,92.43
2023-05-10T05:03:18.290Z,92.34
2023-05-10T05:05:46.641Z,91.94
2023-05-10T05:08:14.844Z,92.32
2023-05-10T05:10:44.146Z,92.32
2023-05-10T05:13:12.413Z,92.33
2023-05-10T05:15:40.315Z,92.37
2023-05-10T05:18:08.221Z,92.33
2023-05-10T05:20:36.066Z,92.49
2023-05-10T05:23:03.998Z,92.46
2023-05-10T05:25:31.799Z,92.45
2023-05-10T05:28:00.923Z,92.27
2023-05-10T05:30:28.824Z,92.27
2023-05-10T05:32:56.683Z,92.29
2023-05-10T05:35:24.434Z,92.19
2023-05-10T05:37:52.248Z,92.21
2023-05-10T05:40:21.377Z,92.06
2023-05-10T05:42:49.200Z,91.81
2023-05-10T05:45:18.727Z,91.57
2023-05-10T05:47:47.838Z,91.20
2023-05-10T05:50:15.814Z,91.04
2023-05-10T05:52:43.580Z,90.72
2023-05-10T05:55:11.403Z,90.77
2023-05-10T05:57:39.306Z,89.99
2023-05-10T06:00:08.584Z,89.33
2023-05-10T06:02:37.925Z,88.64
2023-05-10T06:05:06.498Z,88.49
2023-05-10T06:07:34.253Z,88.27
2023-05-10T06:10:02.101Z,88.12
2023-05-10T06:12:29.867Z,88.09
2023-05-10T06:14:57.621Z,87.73
2023-05-10T06:17:26.242Z,87.41
2023-05-10T06:19:55.494Z,86.80
2023-05-10T06:22:23.783Z,86.67
2023-05-10T06:24:51.685Z,86.51
2023-05-10T06:27:19.409Z,85.84
2023-05-10T06:29:47.322Z,85.67
2023-05-10T06:32:15.094Z,85.05
2023-05-10T06:34:44.420Z,84.93
2023-05-10T06:37:13.521Z,84.51
2023-05-10T06:39:41.299Z,84.19
2023-05-10T06:42:09.117Z,83.58
2023-05-10T06:44:36.956Z,83.57
2023-05-10T06:47:04.817Z,82.87
2023-05-10T06:49:32.609Z,82.34
2023-05-10T06:52:00.431Z,82.50
2023-05-10T06:54:29.627Z,81.30
2023-05-10T06:56:57.396Z,80.75
2023-05-10T06:59:25.424Z,80.22
2023-05-10T07:01:53.238Z,80.38
2023-05-10T07:04:21.057Z,79.84
2023-05-10T07:06:50.588Z,79.72
2023-05-10T07:09:18.399Z,79.36
2023-05-10T07:11:47.557Z,79.59
2023-05-10T07:14:15.312Z,79.79
2023-05-10T07:16:43.385Z,78.93
2023-05-10T07:19:11.291Z,78.98
2023-05-10T07:21:39.046Z,79.40
2023-05-10T07:24:07.137Z,80.26
2023-05-10T07:26:34.923Z,80.52
2023-05-10T07:29:04.250Z,80.29
2023-05-10T07:31:32.069Z,79.81
2023-05-10T07:33:59.806Z,78.93
2023-05-10T07:36:27.744Z,79.06
2023-05-10T07:38:55.685Z,79.44
2023-05-10T07:41:23.448Z,79.88
2023-05-10T07:43:51.368Z,80.00
2023-05-10T07:46:20.811Z,80.13
2023-05-10T07:48:48.577Z,80.86
2023-05-10T07:51:16.430Z,79.98
2023-05-10T07:53:44.230Z,80.47
2023-05-10T07:56:26.186Z,80.44
2023-05-10T07:58:54.055Z,80.15
2023-05-10T08:01:23.342Z,80.84
2023-05-10T08:03:52.149Z,80.54
2023-05-10T08:06:20.368Z,79.49
2023-05-10T08:08:50.475Z,80.42
2023-05-10T08:11:18.729Z,80.43
2023-05-10T08:13:46.750Z,79.72
2023-05-10T08:16:14.663Z,79.93
2023-05-10T08:18:43.999Z,79.72
2023-05-10T08:21:12.399Z,80.00
2023-05-10T08:23:40.406Z,79.80
2023-05-10T08:26:08.592Z,80.40
2023-05-10T08:28:36.349Z,79.85
2023-05-10T08:31:04.249Z,80.16
2023-05-10T08:33:32.071Z,79.67
2023-05-10T08:36:01.186Z,79.62
2023-05-10T08:38:28.968Z,79.66
2023-05-10T08:40:59.474Z,78.76
2023-05-10T08:43:30.018Z,77.70
2023-05-10T08:45:58.413Z,78.79
2023-05-10T08:48:27.030Z,79.29
2023-05-10T08:50:56.498Z,79.35
2023-05-10T08:53:28.286Z,77.83
2023-05-10T08:55:57.291Z,77.73
2023-05-10T08:58:25.035Z,78.54
2023-05-10T09:00:53.465Z,77.90
2023-05-10T09:03:21.250Z,77.17
2023-05-10T09:05:49.215Z,76.95
2023-05-10T09:08:17.624Z,76.43
2023-05-10T09:10:48.451Z,75.92
2023-05-10T09:13:17.258Z,76.02
2023-05-10T09:15:46.671Z,76.27
2023-05-10T09:18:14.537Z,76.38
2023-05-10T09:20:42.727Z,75.71
2023-05-10T09:23:10.722Z,76.07
2023-05-10T09:25:39.736Z,76.49
2023-05-10T09:28:10.491Z,76.57
2023-05-10T09:30:38.356Z,76.96
2023-05-10T09:33:06.224Z,76.89
2023-05-10T09:35:35.032Z,77.70
2023-05-10T09:38:04.800Z,76.82
2023-05-10T09:40:33.218Z,76.81
2023-05-10T09:43:02.907Z,76.40
2023-05-10T09:45:33.112Z,76.46
2023-05-10T09:48:02.811Z,75.78
2023-05-10T09:50:31.273Z,76.46
2023-05-10T09:53:00.671Z,75.33
2023-05-10T09:55:41.195Z,74.42
2023-05-10T09:58:11.614Z,73.75
2023-05-10T10:00:42.269Z,72.68
2023-05-10T10:03:14.927Z,72.66
2023-05-10T10:05:43.613Z,73.89
2023-05-10T10:08:11.806Z,72.08
2023-05-10T10:10:41.246Z,72.91
2023-05-10T10:13:09.691Z,72.14
2023-05-10T10:15:37.725Z,71.22
2023-05-10T10:18:07.457Z,70.34
2023-05-10T10:20:35.869Z,68.94
2023-05-10T10:23:04.353Z,67.70
2023-05-10T10:25:32.221Z,68.50
2023-05-10T10:28:11.478Z,66.71
2023-05-10T10:30:43.442Z,67.74
2023-05-10T10:33:36.756Z,68.22
2023-05-10T10:36:05.754Z,66.66
2023-05-10T10:38:58.957Z,67.35
2023-05-10T10:41:31.887Z,65.40
2023-05-10T10:44:24.668Z,66.59
2023-05-10T10:47:03.416Z,66.39
2023-05-10T10:49:34.836Z,65.91
2023-05-10T10:52:16.079Z,65.38
2023-05-10T10:54:44.014Z,64.56
2023-05-10T10:57:15.622Z,64.58
2023-05-10T10:59:46.639Z,63.87
2023-05-10T11:02:35.084Z,64.32
2023-05-10T11:05:28.000Z,63.56
2023-05-10T11:07:56.107Z,63.29
2023-05-10T11:10:24.330Z,62.67
2023-05-10T11:12:56.696Z,61.26
2023-05-10T11:15:31.546Z,61.39
2023-05-10T11:18:00.238Z,61.32
2023-05-10T11:20:34.372Z,60.40
2023-05-10T11:23:13.898Z,59.40
2023-05-10T11:25:45.064Z,58.59
2023-05-10T11:28:13.352Z,57.35
2023-05-10T11:30:41.875Z,56.32
2023-05-10T11:33:10.103Z,55.55
2023-05-10T11:35:43.621Z,55.64
2023-05-10T11:38:12.458Z,54.76
2023-05-10T11:40:40.927Z,55.86
2023-05-10T11:43:08.701Z,55.47
2023-05-10T11:45:37.021Z,54.96
2023-05-10T11:48:05.056Z,55.63
2023-05-10T11:50:32.860Z,54.46
2023-05-10T11:53:01.991Z,53.50
2023-05-10T11:55:31.265Z,55.08
2023-05-10T11:58:04.567Z,53.76
2023-05-10T12:00:32.694Z,53.94
2023-05-10T12:03:00.829Z,54.22
2023-05-10T12:05:28.840Z,53.36
2023-05-10T12:08:16.409Z,53.36
2023-05-10T12:10:44.283Z,53.75
2023-05-10T12:13:16.407Z,54.86
2023-05-10T12:15:45.486Z,55.14
2023-05-10T12:18:13.911Z,55.67
2023-05-10T12:20:42.394Z,57.43
2023-05-10T12:23:11.515Z,58.63
2023-05-10T12:25:41.181Z,58.25
2023-05-10T12:28:10.948Z,59.29
2023-05-10T12:30:39.503Z,59.30
2023-05-10T12:33:11.054Z,59.88
2023-05-10T12:35:49.399Z,60.36
2023-05-10T12:38:31.989Z,60.32
2023-05-10T12:41:02.786Z,59.92
2023-05-10T12:43:31.230Z,60.41
2023-05-10T12:45:59.161Z,60.44
2023-05-10T12:48:29.760Z,60.25
2023-05-10T12:50:57.620Z,60.29
2023-05-10T12:53:25.446Z,60.10
2023-05-10T12:55:53.226Z,60.98
2023-05-10T13:00:57.409Z,60.56
2023-05-10T13:03:25.536Z,60.64
2023-05-10T13:05:53.370Z,61.02
2023-05-10T13:08:21.188Z,61.07
2023-05-10T13:10:48.954Z,61.65
2023-05-10T13:13:19.236Z,60.34
2023-05-10T13:15:48.667Z,60.27
2023-05-10T13:18:16.583Z,59.77
2023-05-10T13:20:45.290Z,59.00
2023-05-10T13:23:13.078Z,58.59
2023-05-10T13:25:41.048Z,59.22
2023-05-10T13:28:08.867Z,58.36
2023-05-10T13:30:36.848Z,58.35
2023-05-10T13:33:06.328Z,57.31
2023-05-10T13:35:34.222Z,56.37
2023-05-10T13:38:02.271Z,57.06
2023-05-10T13:40:30.192Z,57.30
2023-05-10T13:42:57.969Z,57.10
2023-05-10T13:45:25.761Z,57.14
2023-05-10T13:47:53.583Z,57.69
2023-05-10T13:50:22.951Z,55.12
2023-05-10T13:52:50.910Z,54.20
2023-05-10T13:55:19.000Z,53.13
2023-05-10T13:57:47.157Z,53.64
2023-05-10T14:00:16.173Z,53.51
2023-05-10T14:02:44.065Z,51.95
2023-05-10T14:05:12.744Z,51.56
2023-05-10T14:07:42.208Z,51.67
2023-05-10T14:10:10.659Z,50.77
2023-05-10T14:12:38.481Z,51.71
2023-05-10T14:15:07.801Z,51.62
2023-05-10T14:17:35.697Z,52.34
2023-05-10T14:20:04.748Z,53.32
2023-05-10T14:22:32.532Z,52.81
2023-05-10T14:25:02.304Z,51.93
2023-05-10T14:27:30.116Z,51.42
2023-05-10T14:29:57.870Z,52.59
2023-05-10T14:32:25.888Z,53.27
2023-05-10T14:34:53.674Z,53.08
2023-05-10T14:37:22.039Z,53.18
2023-05-10T14:39:49.874Z,52.87
2023-05-10T14:42:19.083Z,52.61
2023-05-10T14:44:46.928Z,53.01
2023-05-10T14:47:15.418Z,52.97
2023-05-10T14:49:43.221Z,51.96
2023-05-10T14:52:11.170Z,53.03
2023-05-10T14:54:39.614Z,53.05
2023-05-10T14:57:07.502Z,51.98
2023-05-10T14:59:36.664Z,53.31
2023-05-10T15:02:05.282Z,54.01
2023-05-10T15:04:33.520Z,54.95
2023-05-10T15:07:01.829Z,55.52
2023-05-10T15:09:29.590Z,55.73
2023-05-10T15:11:57.386Z,56.58
2023-05-10T15:14:25.206Z,57.15
2023-05-10T15:16:54.381Z,57.60
2023-05-10T15:19:22.233Z,57.76
2023-05-10T15:21:49.993Z,57.51
2023-05-10T15:24:17.828Z,58.00
2023-05-10T15:26:45.818Z,58.07
2023-05-10T15:29:20.541Z,58.01
2023-05-10T15:31:49.143Z,58.71
2023-05-10T15:34:19.050Z,59.03
2023-05-10T15:36:46.853Z,58.25
2023-05-10T15:39:14.612Z,58.15
2023-05-10T15:41:42.644Z,58.88
2023-05-10T15:44:10.434Z,58.29
2023-05-10T15:46:38.972Z,56.67
2023-05-10T15:49:07.595Z,56.41
2023-05-10T15:51:36.930Z,56.25
2023-05-10T15:54:08.887Z,55.89
2023-05-10T15:56:37.012Z,55.24
2023-05-10T15:59:06.083Z,54.75
2023-05-10T16:01:33.934Z,53.78
2023-05-10T16:04:01.950Z,53.73
2023-05-10T16:06:29.796Z,54.46
2023-05-10T16:08:58.949Z,54.45
2023-05-10T16:11:26.917Z,54.36
2023-05-10T16:13:54.702Z,54.75
2023-05-10T16:16:22.597Z,54.53
2023-05-10T16:18:50.602Z,55.18
2023-05-10T16:21:18.447Z,56.81
2023-05-10T16:23:46.634Z,57.17
2023-05-10T16:26:15.813Z,57.53
2023-05-10T16:28:43.756Z,57.54
2023-05-10T16:31:11.656Z,56.68
2023-05-10T16:33:39.500Z,57.15
2023-05-10T16:36:07.412Z,57.00
2023-05-10T16:38:35.218Z,57.26
2023-05-10T16:41:03.607Z,57.74
2023-05-10T16:43:33.542Z,57.61
2023-05-10T16:46:01.770Z,58.27
2023-05-10T16:48:29.698Z,58.41
2023-05-10T16:50:57.543Z,58.63
2023-05-10T16:53:26.112Z,58.92
2023-05-10T16:55:53.993Z,58.66
2023-05-10T16:58:21.802Z,59.35
2023-05-10T17:00:51.024Z,59.00
2023-05-10T17:03:18.830Z,57.82
2023-05-10T17:05:46.766Z,57.67
2023-05-10T17:08:14.527Z,57.96
2023-05-10T17:10:42.451Z,57.53
2023-05-10T17:13:10.680Z,57.18
2023-05-10T17:15:38.822Z,57.28
2023-05-10T17:18:08.238Z,57.25
2023-05-10T17:20:36.083Z,57.10
2023-05-10T17:23:03.902Z,57.12
2023-05-10T17:25:31.697Z,57.47
2023-05-10T17:27:59.508Z,57.84
2023-05-10T17:30:28.852Z,57.70
2023-05-10T17:32:56.723Z,58.69
2023-05-10T17:35:25.952Z,58.55
2023-05-10T17:37:53.750Z,58.30
2023-05-10T17:40:21.749Z,58.45
2023-05-10T17:42:49.614Z,58.42
2023-05-10T17:45:18.682Z,59.10
2023-05-10T17:47:46.733Z,59.61
2023-05-10T17:50:14.565Z,60.05
2023-05-10T17:52:43.788Z,60.14
2023-05-10T17:55:13.350Z,60.52
2023-05-10T17:57:41.181Z,60.46
2023-05-10T18:00:10.477Z,60.58
2023-05-10T18:02:38.413Z,60.75
2023-05-10T18:05:07.243Z,60.78
2023-05-10T18:07:35.947Z,61.48
2023-05-10T18:10:05.729Z,61.65
2023-05-10T18:12:33.451Z,61.73
2023-05-10T18:15:01.416Z,61.96
2023-05-10T18:17:29.422Z,62.42
2023-05-10T18:19:57.380Z,62.49
2023-05-10T18:22:25.183Z,62.72
2023-05-10T18:24:53.216Z,62.73
2023-05-10T18:27:22.356Z,63.14
2023-05-10T18:29:50.114Z,63.31
2023-05-10T18:32:17.891Z,63.44
2023-05-10T18:34:45.687Z,63.67
2023-05-10T18:37:13.638Z,63.99
2023-05-10T18:39:41.412Z,63.70
2023-05-10T18:42:09.766Z,64.13
2023-05-10T18:44:38.931Z,64.36
2023-05-10T18:47:06.750Z,65.09
2023-05-10T18:49:34.648Z,66.36
2023-05-10T18:52:02.403Z,67.40
2023-05-10T18:54:30.203Z,67.09
2023-05-10T18:56:58.730Z,68.11
2023-05-10T18:59:27.837Z,69.05
2023-05-10T19:01:57.720Z,68.84
2023-05-10T19:04:25.690Z,68.90
2023-05-10T19:06:53.452Z,68.94
2023-05-10T19:09:21.242Z,68.99
2023-05-10T19:11:49.256Z,68.97
2023-05-10T19:14:17.025Z,68.86
2023-05-10T19:16:44.896Z,68.01
2023-05-10T19:19:15.041Z,68.05
2023-05-10T19:21:42.821Z,69.15
2023-05-10T19:24:11.999Z,69.00
2023-05-10T19:26:39.921Z,68.63
2023-05-10T19:29:07.756Z,68.51
2023-05-10T19:31:35.700Z,69.34
2023-05-10T19:34:05.455Z,70.08
2023-05-10T19:36:34.972Z,69.83
2023-05-10T19:39:02.823Z,69.03
2023-05-10T19:41:30.641Z,69.78
2023-05-10T19:43:58.386Z,71.28
2023-05-10T19:46:26.193Z,70.89
2023-05-10T19:48:53.944Z,72.15
2023-05-10T19:51:21.793Z,72.60
2023-05-10T19:53:50.899Z,72.57
2023-05-10T19:56:19.618Z,72.04
2023-05-10T19:58:48.010Z,71.89
2023-05-10T20:01:16.081Z,71.90
2023-05-10T20:03:44.009Z,72.04
2023-05-10T20:06:12.263Z,72.33
2023-05-10T20:08:40.031Z,71.83
2023-05-10T20:11:09.198Z,71.88
2023-05-10T20:13:36.979Z,72.38
2023-05-10T20:16:06.237Z,72.28
2023-05-10T20:18:34.529Z,71.98
2023-05-10T20:21:02.412Z,72.00
2023-05-10T20:23:30.452Z,72.27
2023-05-10T20:25:58.227Z,72.69
2023-05-10T20:28:28.353Z,72.90
2023-05-10T20:30:56.655Z,72.59
2023-05-10T20:33:24.714Z,72.71
2023-05-10T20:35:52.692Z,72.87
2023-05-10T20:38:21.148Z,72.95
2023-05-10T20:40:49.079Z,73.18
2023-05-10T20:43:16.960Z,73.18
2023-05-10T20:45:46.701Z,73.06
2023-05-10T20:48:14.716Z,73.12
2023-05-10T20:50:42.442Z,73.32
2023-05-10T20:53:10.347Z,73.42
2023-05-10T20:55:38.454Z,73.41
2023-05-10T20:58:06.260Z,73.04
2023-05-10T21:00:34.014Z,73.31
2023-05-10T21:03:03.312Z,73.03
2023-05-10T21:05:31.514Z,73.18
2023-05-10T21:07:59.341Z,73.27
2023-05-10T21:10:28.359Z,73.57
2023-05-10T21:12:56.274Z,73.45
2023-05-10T21:15:25.585Z,73.22
2023-05-10T21:17:54.163Z,73.31
2023-05-10T21:20:23.564Z,73.21
2023-05-10T21:22:51.284Z,73.17
2023-05-10T21:25:19.215Z,73.11
2023-05-10T21:27:47.291Z,73.43
2023-05-10T21:30:15.421Z,73.28
2023-05-10T21:32:43.360Z,73.43
2023-05-10T21:35:12.757Z,73.57
2023-05-10T21:37:42.147Z,73.69
2023-05-10T21:40:11.417Z,73.81
2023-05-10T21:42:39.434Z,75.31
2023-05-10T21:45:08.465Z,76.11
2023-05-10T21:47:36.497Z,77.08
2023-05-10T21:50:04.652Z,77.40
2023-05-10T21:52:32.887Z,78.35
2023-05-10T21:55:02.084Z,79.03
2023-05-10T21:57:29.938Z,79.17
2023-05-10T21:59:57.698Z,79.61
2023-05-10T22:02:25.736Z,80.21
2023-05-10T22:04:53.590Z,80.58
2023-05-10T22:07:21.731Z,80.98
2023-05-10T22:09:49.645Z,81.15
2023-05-10T22:12:18.776Z,81.72
2023-05-10T22:14:47.542Z,81.93
2023-05-10T22:17:17.960Z,81.25
2023-05-10T22:19:45.762Z,80.82
2023-05-10T22:22:13.568Z,80.32
2023-05-10T22:24:41.518Z,80.23
2023-05-10T22:27:09.352Z,79.70
2023-05-10T22:29:38.516Z,79.12
2023-05-10T22:32:06.748Z,78.11
2023-05-10T22:34:35.490Z,78.54
2023-05-10T22:37:03.880Z,78.05
2023-05-10T22:39:31.943Z,77.47
2023-05-10T22:42:00.030Z,77.25
2023-05-10T22:44:27.846Z,77.53
2023-05-10T22:46:57.032Z,76.86
2023-05-10T22:49:24.801Z,76.57
2023-05-10T22:51:52.595Z,76.36
2023-05-10T22:54:20.428Z,76.51
2023-05-10T22:56:48.217Z,77.01
2023-05-10T22:59:16.209Z,77.35
2023-05-10T23:01:44.252Z,76.55
2023-05-10T23:04:13.552Z,76.63
2023-05-10T23:06:41.922Z,76.76
2023-05-10T23:09:10.116Z,76.78
2023-05-10T23:11:37.968Z,77.37
2023-05-10T23:14:05.795Z,76.94
2023-05-10T23:16:33.941Z,77.04
2023-05-10T23:19:02.155Z,78.25
2023-05-10T23:21:32.255Z,77.56
2023-05-10T23:24:00.344Z,77.28
2023-05-10T23:26:28.568Z,77.26
2023-05-10T23:28:56.436Z,77.53
2023-05-10T23:31:24.325Z,77.07
2023-05-10T23:33:52.387Z,77.00
2023-05-10T23:36:20.247Z,77.23
2023-05-10T23:38:49.569Z,77.19
2023-05-10T23:41:17.694Z,76.93
2023-05-10T23:43:45.599Z,76.68
2023-05-10T23:46:13.646Z,76.78
2023-05-10T23:48:41.651Z,76.84
2023-05-10T23:51:09.469Z,76.92
2023-05-10T23:53:37.619Z,77.00
2023-05-10T23:56:07.517Z,76.70
2023-05-10T23:58:35.376Z,76.77
